sensor_id;sensor_type;location;lat;lon;timestamp;pressure;altitude;pressure_sealevel;temperature;humidity
14612;BME280;7392;52.078;11.650;2022-09-02T00:01:24;101432.59;;;14.30;72.95
14612;BME280;7392;52.078;11.650;2022-09-02T00:03:55;101429.94;;;14.27;73.00
14612;BME280;7392;52.078;11.650;2022-09-02T00:06:24;101429.09;;;14.24;73.14
14612;BME280;7392;52.078;11.650;2022-09-02T00:08:52;101422.00;;;14.18;73.27
14612;BME280;7392;52.078;11.650;2022-09-02T00:11:22;101422.03;;;14.15;73.44
14612;BME280;7392;52.078;11.650;2022-09-02T00:13:50;101415.81;;;14.10;73.73
14612;BME280;7392;52.078;11.650;2022-09-02T00:16:18;101419.38;;;14.07;74.08
14612;BME280;7392;52.078;11.650;2022-09-02T00:18:50;101422.97;;;14.03;74.28
14612;BME280;7392;52.078;11.650;2022-09-02T00:21:19;101422.13;;;13.99;74.73
14612;BME280;7392;52.078;11.650;2022-09-02T00:23:48;101420.34;;;13.95;74.88
14612;BME280;7392;52.078;11.650;2022-09-02T00:26:16;101423.94;;;13.93;75.14
14612;BME280;7392;52.078;11.650;2022-09-02T00:28:44;101419.47;;;13.92;75.32
14612;BME280;7392;52.078;11.650;2022-09-02T00:31:22;101416.84;;;13.89;75.49
14612;BME280;7392;52.078;11.650;2022-09-02T00:33:52;101415.06;;;13.88;75.59
14612;BME280;7392;52.078;11.650;2022-09-02T00:36:20;101420.41;;;13.86;75.79
14612;BME280;7392;52.078;11.650;2022-09-02T00:38:48;101415.06;;;13.86;75.92
14612;BME280;7392;52.078;11.650;2022-09-02T00:41:19;101410.59;;;13.85;75.91
14612;BME280;7392;52.078;11.650;2022-09-02T00:43:50;101408.84;;;13.86;76.00
14612;BME280;7392;52.078;11.650;2022-09-02T00:46:20;101417.72;;;13.84;76.45
14612;BME280;7392;52.078;11.650;2022-09-02T00:48:55;101422.19;;;13.84;76.48
14612;BME280;7392;52.078;11.650;2022-09-02T00:51:25;101410.63;;;13.83;76.91
14612;BME280;7392;52.078;11.650;2022-09-02T00:53:54;101410.59;;;13.85;77.00
14612;BME280;7392;52.078;11.650;2022-09-02T00:56:24;101404.38;;;13.86;77.17
14612;BME280;7392;52.078;11.650;2022-09-02T00:58:54;101415.94;;;13.87;77.34
14612;BME280;7392;52.078;11.650;2022-09-02T01:01:23;101412.38;;;13.88;77.74
14612;BME280;7392;52.078;11.650;2022-09-02T01:03:51;101410.59;;;13.88;77.29
14612;BME280;7392;52.078;11.650;2022-09-02T01:06:22;101408.84;;;13.89;77.39
14612;BME280;7392;52.078;11.650;2022-09-02T01:08:57;101407.03;;;13.91;77.72
14612;BME280;7392;52.078;11.650;2022-09-02T01:11:28;101404.34;;;13.92;77.67
14612;BME280;7392;52.078;11.650;2022-09-02T01:13:58;101402.56;;;13.94;77.53
14612;BME280;7392;52.078;11.650;2022-09-02T01:16:30;101402.56;;;13.96;77.44
14612;BME280;7392;52.078;11.650;2022-09-02T01:19:03;101400.75;;;13.99;77.34
14612;BME280;7392;52.078;11.650;2022-09-02T01:21:34;101400.75;;;14.02;76.95
14612;BME280;7392;52.078;11.650;2022-09-02T01:24:05;101398.94;;;14.05;77.11
14612;BME280;7392;52.078;11.650;2022-09-02T01:26:32;101391.78;;;14.07;77.14
14612;BME280;7392;52.078;11.650;2022-09-02T01:29:00;101384.66;;;14.07;76.65
14612;BME280;7392;52.078;11.650;2022-09-02T01:31:28;101387.31;;;14.12;76.70
14612;BME280;7392;52.078;11.650;2022-09-02T01:33:56;101387.31;;;14.13;76.59
14612;BME280;7392;52.078;11.650;2022-09-02T01:36:25;101383.75;;;14.14;76.35
14612;BME280;7392;52.078;11.650;2022-09-02T01:38:52;101382.81;;;14.15;76.16
14612;BME280;7392;52.078;11.650;2022-09-02T01:41:22;101380.16;;;14.18;76.03
14612;BME280;7392;52.078;11.650;2022-09-02T01:43:50;101384.59;;;14.19;75.68
14612;BME280;7392;52.078;11.650;2022-09-02T01:46:18;101381.00;;;14.20;75.60
14612;BME280;7392;52.078;11.650;2022-09-02T01:48:46;101381.88;;;14.22;75.67
14612;BME280;7392;52.078;11.650;2022-09-02T01:51:15;101377.44;;;14.23;75.48
14612;BME280;7392;52.078;11.650;2022-09-02T01:53:45;101375.66;;;14.24;75.38
14612;BME280;7392;52.078;11.650;2022-09-02T01:56:15;101380.13;;;14.23;75.51
14612;BME280;7392;52.078;11.650;2022-09-02T01:58:44;101372.13;;;14.20;75.41
14612;BME280;7392;52.078;11.650;2022-09-02T02:01:12;101376.59;;;14.19;75.30
14612;BME280;7392;52.078;11.650;2022-09-02T02:03:40;101371.25;;;14.15;75.07
14612;BME280;7392;52.078;11.650;2022-09-02T02:06:09;101373.06;;;14.13;75.06
14612;BME280;7392;52.078;11.650;2022-09-02T02:08:39;101362.41;;;14.08;75.11
14612;BME280;7392;52.078;11.650;2022-09-02T02:11:08;101367.75;;;14.07;75.18
14612;BME280;7392;52.078;11.650;2022-09-02T02:13:36;101368.69;;;14.01;75.18
14612;BME280;7392;52.078;11.650;2022-09-02T02:16:06;101369.59;;;13.97;75.10
14612;BME280;7392;52.078;11.650;2022-09-02T02:18:34;101367.84;;;13.94;75.07
14612;BME280;7392;52.078;11.650;2022-09-02T02:21:03;101372.31;;;13.89;75.21
14612;BME280;7392;52.078;11.650;2022-09-02T02:23:30;101372.34;;;13.86;75.61
14612;BME280;7392;52.078;11.650;2022-09-02T02:25:58;101377.69;;;13.81;75.65
14612;BME280;7392;52.078;11.650;2022-09-02T02:28:26;101367.06;;;13.77;75.66
14612;BME280;7392;52.078;11.650;2022-09-02T02:30:54;101372.41;;;13.74;75.89
14612;BME280;7392;52.078;11.650;2022-09-02T02:33:23;101377.75;;;13.69;76.19
14612;BME280;7392;52.078;11.650;2022-09-02T02:36:03;101360.88;;;13.64;76.03
14612;BME280;7392;52.078;11.650;2022-09-02T02:38:32;101372.47;;;13.61;76.32
14612;BME280;7392;52.078;11.650;2022-09-02T02:41:00;101369.81;;;13.57;76.50
14612;BME280;7392;52.078;11.650;2022-09-02T02:43:32;101371.63;;;13.55;76.57
14612;BME280;7392;52.078;11.650;2022-09-02T02:46:00;101367.19;;;13.49;76.60
14612;BME280;7392;52.078;11.650;2022-09-02T02:48:29;101366.31;;;13.44;76.76
14612;BME280;7392;52.078;11.650;2022-09-02T02:50:57;101364.56;;;13.38;76.94
14612;BME280;7392;52.078;11.650;2022-09-02T02:53:26;101363.69;;;13.33;77.26
14612;BME280;7392;52.078;11.650;2022-09-02T02:55:58;101358.34;;;13.30;77.35
14612;BME280;7392;52.078;11.650;2022-09-02T02:58:26;101361.91;;;13.24;77.66
14612;BME280;7392;52.078;11.650;2022-09-02T03:00:54;101358.38;;;13.21;77.85
14612;BME280;7392;52.078;11.650;2022-09-02T03:03:23;101356.63;;;13.15;77.98
14612;BME280;7392;52.078;11.650;2022-09-02T03:05:54;101357.50;;;13.11;78.23
14612;BME280;7392;52.078;11.650;2022-09-02T03:08:25;101361.09;;;13.07;78.46
14612;BME280;7392;52.078;11.650;2022-09-02T03:10:54;101359.31;;;13.03;78.55
14612;BME280;7392;52.078;11.650;2022-09-02T03:13:26;101362.88;;;12.99;78.81
14612;BME280;7392;52.078;11.650;2022-09-02T03:15:58;101360.22;;;12.94;79.02
14612;BME280;7392;52.078;11.650;2022-09-02T03:18:26;101354.00;;;12.89;79.23
14612;BME280;7392;52.078;11.650;2022-09-02T03:20:57;101351.34;;;12.86;79.24
14612;BME280;7392;52.078;11.650;2022-09-02T03:23:25;101361.13;;;12.82;79.50
14612;BME280;7392;52.078;11.650;2022-09-02T03:25:53;101350.50;;;12.78;79.80
14612;BME280;7392;52.078;11.650;2022-09-02T03:28:34;101358.50;;;12.73;79.99
14612;BME280;7392;52.078;11.650;2022-09-02T03:31:04;101338.97;;;12.68;80.33
14612;BME280;7392;52.078;11.650;2022-09-02T03:33:32;101350.50;;;12.64;80.48
14612;BME280;7392;52.078;11.650;2022-09-02T03:36:03;101345.19;;;12.61;80.67
14612;BME280;7392;52.078;11.650;2022-09-02T03:38:33;101352.31;;;12.56;80.76
14612;BME280;7392;52.078;11.650;2022-09-02T03:41:02;101342.50;;;12.50;80.75
14612;BME280;7392;52.078;11.650;2022-09-02T03:43:29;101341.63;;;12.45;80.79
14612;BME280;7392;52.078;11.650;2022-09-02T03:45:57;101340.75;;;12.41;81.19
14612;BME280;7392;52.078;11.650;2022-09-02T03:48:26;101337.19;;;12.36;81.41
14612;BME280;7392;52.078;11.650;2022-09-02T03:50:55;101336.31;;;12.32;81.37
14612;BME280;7392;52.078;11.650;2022-09-02T03:53:24;101339.88;;;12.28;81.55
14612;BME280;7392;52.078;11.650;2022-09-02T03:55:57;101336.31;;;12.23;81.57
14612;BME280;7392;52.078;11.650;2022-09-02T03:58:26;101345.19;;;12.19;81.76
14612;BME280;7392;52.078;11.650;2022-09-02T04:00:56;101348.72;;;12.15;82.15
14612;BME280;7392;52.078;11.650;2022-09-02T04:03:24;101346.94;;;12.11;82.42
14612;BME280;7392;52.078;11.650;2022-09-02T04:05:53;101349.63;;;12.06;82.44
14612;BME280;7392;52.078;11.650;2022-09-02T04:08:28;101345.16;;;12.02;82.87
14612;BME280;7392;52.078;11.650;2022-09-02T04:11:04;101354.03;;;11.98;82.93
14612;BME280;7392;52.078;11.650;2022-09-02T04:13:32;101356.69;;;11.92;83.30
14612;BME280;7392;52.078;11.650;2022-09-02T04:16:05;101358.41;;;11.90;83.62
14612;BME280;7392;52.078;11.650;2022-09-02T04:18:36;101357.53;;;11.86;83.73
14612;BME280;7392;52.078;11.650;2022-09-02T04:21:04;101361.09;;;11.84;84.14
14612;BME280;7392;52.078;11.650;2022-09-02T04:23:36;101358.41;;;11.79;84.22
14612;BME280;7392;52.078;11.650;2022-09-02T04:26:04;101353.06;;;11.76;84.36
14612;BME280;7392;52.078;11.650;2022-09-02T04:28:33;101359.25;;;11.73;84.45
14612;BME280;7392;52.078;11.650;2022-09-02T04:31:03;101358.38;;;11.70;84.92
14612;BME280;7392;52.078;11.650;2022-09-02T04:33:32;101356.59;;;11.67;84.96
14612;BME280;7392;52.078;11.650;2022-09-02T04:36:03;101352.13;;;11.65;85.23
14612;BME280;7392;52.078;11.650;2022-09-02T04:38:32;101352.16;;;11.62;85.55
14612;BME280;7392;52.078;11.650;2022-09-02T04:41:05;101356.56;;;11.59;85.35
14612;BME280;7392;52.078;11.650;2022-09-02T04:43:34;101353.00;;;11.57;85.75
14612;BME280;7392;52.078;11.650;2022-09-02T04:46:03;101352.13;;;11.55;85.86
14612;BME280;7392;52.078;11.650;2022-09-02T04:48:34;101345.91;;;11.52;86.01
14612;BME280;7392;52.078;11.650;2022-09-02T04:51:04;101345.03;;;11.50;86.20
14612;BME280;7392;52.078;11.650;2022-09-02T04:53:33;101352.06;;;11.48;86.50
14612;BME280;7392;52.078;11.650;2022-09-02T04:56:04;101345.88;;;11.47;86.66
14612;BME280;7392;52.078;11.650;2022-09-02T04:58:34;101347.66;;;11.45;86.91
14612;BME280;7392;52.078;11.650;2022-09-02T05:01:05;101345.88;;;11.44;87.21
14612;BME280;7392;52.078;11.650;2022-09-02T05:03:33;101347.66;;;11.44;87.28
14612;BME280;7392;52.078;11.650;2022-09-02T05:06:03;101352.09;;;11.43;87.50
14612;BME280;7392;52.078;11.650;2022-09-02T05:08:33;101350.31;;;11.44;87.90
14612;BME280;7392;52.078;11.650;2022-09-02T05:11:05;101355.63;;;11.44;88.40
14612;BME280;7392;52.078;11.650;2022-09-02T05:13:33;101357.41;;;11.45;88.50
14612;BME280;7392;52.078;11.650;2022-09-02T05:16:02;101352.97;;;11.45;88.68
14612;BME280;7392;52.078;11.650;2022-09-02T05:18:30;101356.53;;;11.47;89.44
14612;BME280;7392;52.078;11.650;2022-09-02T05:21:03;101360.06;;;11.49;90.00
14612;BME280;7392;52.078;11.650;2022-09-02T05:23:33;101353.00;;;11.51;90.06
14612;BME280;7392;52.078;11.650;2022-09-02T05:26:02;101358.31;;;11.53;90.50
14612;BME280;7392;52.078;11.650;2022-09-02T05:28:32;101355.66;;;11.56;90.12
14612;BME280;7392;52.078;11.650;2022-09-02T05:31:02;101353.88;;;11.58;90.61
14612;BME280;7392;52.078;11.650;2022-09-02T05:33:32;101360.13;;;11.62;90.60
14612;BME280;7392;52.078;11.650;2022-09-02T05:36:04;101353.03;;;11.64;90.71
14612;BME280;7392;52.078;11.650;2022-09-02T05:38:32;101348.59;;;11.66;90.70
14612;BME280;7392;52.078;11.650;2022-09-02T05:41:03;101352.16;;;11.69;90.84
14612;BME280;7392;52.078;11.650;2022-09-02T05:43:35;101354.84;;;11.72;90.78
14612;BME280;7392;52.078;11.650;2022-09-02T05:46:05;101355.72;;;11.76;91.29
14612;BME280;7392;52.078;11.650;2022-09-02T05:48:36;101353.97;;;11.79;91.01
14612;BME280;7392;52.078;11.650;2022-09-02T05:51:22;101353.97;;;11.84;90.59
14612;BME280;7392;52.078;11.650;2022-09-02T05:53:52;101359.31;;;11.89;90.23
14612;BME280;7392;52.078;11.650;2022-09-02T05:56:21;101360.25;;;11.92;90.00
14612;BME280;7392;52.078;11.650;2022-09-02T05:58:50;101357.56;;;11.97;89.92
14612;BME280;7392;52.078;11.650;2022-09-02T06:01:19;101349.59;;;12.02;89.78
14612;BME280;7392;52.078;11.650;2022-09-02T06:03:46;101357.59;;;12.06;89.92
14612;BME280;7392;52.078;11.650;2022-09-02T06:06:15;101351.38;;;12.12;89.44
14612;BME280;7392;52.078;11.650;2022-09-02T06:08:44;101352.28;;;12.15;89.00
14612;BME280;7392;52.078;11.650;2022-09-02T06:11:12;101348.75;;;12.20;88.71
14612;BME280;7392;52.078;11.650;2022-09-02T06:13:41;101349.63;;;12.23;88.47
14612;BME280;7392;52.078;11.650;2022-09-02T06:16:14;101356.72;;;12.29;88.35
14612;BME280;7392;52.078;11.650;2022-09-02T06:18:46;101354.06;;;12.32;88.25
14612;BME280;7392;52.078;11.650;2022-09-02T06:21:15;101357.63;;;12.37;87.80
14612;BME280;7392;52.078;11.650;2022-09-02T06:23:47;101357.59;;;12.42;87.63
14612;BME280;7392;52.078;11.650;2022-09-02T06:26:16;101360.28;;;12.46;87.54
14612;BME280;7392;52.078;11.650;2022-09-02T06:28:45;101356.75;;;12.49;87.49
14612;BME280;7392;52.078;11.650;2022-09-02T06:31:18;101358.50;;;12.53;87.31
14612;BME280;7392;52.078;11.650;2022-09-02T06:33:50;101346.06;;;12.58;86.97
14612;BME280;7392;52.078;11.650;2022-09-02T06:36:21;101351.41;;;12.63;86.64
14612;BME280;7392;52.078;11.650;2022-09-02T06:38:57;101348.72;;;12.67;86.39
14612;BME280;7392;52.078;11.650;2022-09-02T06:41:28;101358.50;;;12.71;86.14
14612;BME280;7392;52.078;11.650;2022-09-02T06:44:01;101351.38;;;12.75;85.99
14612;BME280;7392;52.078;11.650;2022-09-02T06:46:37;101355.78;;;12.81;86.02
14612;BME280;7392;52.078;11.650;2022-09-02T06:49:07;101354.91;;;12.85;85.72
14612;BME280;7392;52.078;11.650;2022-09-02T06:51:38;101359.34;;;12.90;85.57
14612;BME280;7392;52.078;11.650;2022-09-02T06:54:09;101362.88;;;12.97;84.94
14612;BME280;7392;52.078;11.650;2022-09-02T06:56:40;101363.75;;;13.07;84.31
14612;BME280;7392;52.078;11.650;2022-09-02T06:59:17;101353.06;;;13.13;83.46
14612;BME280;7392;52.078;11.650;2022-09-02T07:01:50;101356.59;;;13.20;83.32
14612;BME280;7392;52.078;11.650;2022-09-02T07:04:21;101361.91;;;13.27;83.08
14612;BME280;7392;52.078;11.650;2022-09-02T07:07:08;101355.69;;;13.35;82.78
14612;BME280;7392;52.078;11.650;2022-09-02T07:09:57;101361.88;;;13.43;82.56
14612;BME280;7392;52.078;11.650;2022-09-02T07:12:26;101362.75;;;13.50;82.24
14612;BME280;7392;52.078;11.650;2022-09-02T07:15:01;101360.03;;;13.56;81.72
14612;BME280;7392;52.078;11.650;2022-09-02T07:17:37;101354.69;;;13.63;81.38
14612;BME280;7392;52.078;11.650;2022-09-02T07:20:17;101359.06;;;13.74;80.81
14612;BME280;7392;52.078;11.650;2022-09-02T07:22:50;101356.34;;;13.80;80.49
14612;BME280;7392;52.078;11.650;2022-09-02T07:25:19;101359.84;;;13.91;79.68
14612;BME280;7392;52.078;11.650;2022-09-02T07:27:48;101368.69;;;14.01;79.23
14612;BME280;7392;52.078;11.650;2022-09-02T07:30:18;101358.81;;;14.11;78.93
14612;BME280;7392;52.078;11.650;2022-09-02T07:32:51;101356.94;;;14.24;78.45
14612;BME280;7392;52.078;11.650;2022-09-02T07:35:21;101369.34;;;14.31;77.48
14612;BME280;7392;52.078;11.650;2022-09-02T07:37:50;101361.31;;;14.37;77.34
14612;BME280;7392;52.078;11.650;2022-09-02T07:40:19;101365.69;;;14.44;77.39
14612;BME280;7392;52.078;11.650;2022-09-02T07:42:49;101366.53;;;14.52;77.03
14612;BME280;7392;52.078;11.650;2022-09-02T07:45:19;101369.13;;;14.63;76.24
14612;BME280;7392;52.078;11.650;2022-09-02T07:47:48;101365.47;;;14.73;75.79
14612;BME280;7392;52.078;11.650;2022-09-02T07:50:20;101360.94;;;14.82;75.51
14612;BME280;7392;52.078;11.650;2022-09-02T07:52:52;101363.50;;;14.91;75.33
14612;BME280;7392;52.078;11.650;2022-09-02T07:55:21;101365.16;;;15.03;75.05
14612;BME280;7392;52.078;11.650;2022-09-02T07:57:50;101362.38;;;15.15;74.40
14612;BME280;7392;52.078;11.650;2022-09-02T08:00:21;101366.66;;;15.27;74.17
14612;BME280;7392;52.078;11.650;2022-09-02T08:02:54;101358.50;;;15.39;73.64
14612;BME280;7392;52.078;11.650;2022-09-02T08:05:32;101359.22;;;15.53;73.47
14612;BME280;7392;52.078;11.650;2022-09-02T08:08:01;101358.16;;;15.67;73.15
14612;BME280;7392;52.078;11.650;2022-09-02T08:10:33;101360.66;;;15.81;72.65
14612;BME280;7392;52.078;11.650;2022-09-02T08:13:02;101364.94;;;15.94;72.22
14612;BME280;7392;52.078;11.650;2022-09-02T08:15:33;101355.78;;;16.09;71.70
14612;BME280;7392;52.078;11.650;2022-09-02T08:18:02;101351.09;;;16.23;70.99
14612;BME280;7392;52.078;11.650;2022-09-02T08:20:32;101354.38;;;16.41;70.36
14612;BME280;7392;52.078;11.650;2022-09-02T08:23:02;101351.44;;;16.56;68.93
14612;BME280;7392;52.078;11.650;2022-09-02T08:25:38;101353.75;;;16.76;68.24
14612;BME280;7392;52.078;11.650;2022-09-02T08:28:06;101362.38;;;16.95;68.04
14612;BME280;7392;52.078;11.650;2022-09-02T08:30:34;101353.94;;;17.15;67.46
14612;BME280;7392;52.078;11.650;2022-09-02T08:33:02;101352.63;;;17.36;67.01
14612;BME280;7392;52.078;11.650;2022-09-02T08:35:31;101345.06;;;17.55;65.95
14612;BME280;7392;52.078;11.650;2022-09-02T08:37:59;101334.81;;;17.73;64.72
14612;BME280;7392;52.078;11.650;2022-09-02T08:40:33;101340.66;;;17.93;64.01
14612;BME280;7392;52.078;11.650;2022-09-02T08:43:17;101339.28;;;18.13;62.45
14612;BME280;7392;52.078;11.650;2022-09-02T08:45:50;101346.06;;;18.29;60.62
14612;BME280;7392;52.078;11.650;2022-09-02T08:48:26;101335.72;;;18.48;59.68
14612;BME280;7392;52.078;11.650;2022-09-02T08:51:04;101335.28;;;18.65;59.06
14612;BME280;7392;52.078;11.650;2022-09-02T08:53:38;101341.00;;;18.87;58.71
14612;BME280;7392;52.078;11.650;2022-09-02T08:56:15;101336.84;;;19.09;57.52
14612;BME280;7392;52.078;11.650;2022-09-02T08:58:45;101330.03;;;19.27;55.56
14612;BME280;7392;52.078;11.650;2022-09-02T09:01:22;101332.19;;;19.45;54.03
14612;BME280;7392;52.078;11.650;2022-09-02T09:04:05;101329.00;;;19.60;52.45
14612;BME280;7392;52.078;11.650;2022-09-02T09:06:46;101316.06;;;19.75;51.89
14612;BME280;7392;52.078;11.650;2022-09-02T09:09:24;101316.28;;;19.95;52.08
14612;BME280;7392;52.078;11.650;2022-09-02T09:12:00;101313.81;;;20.16;51.08
14612;BME280;7392;52.078;11.650;2022-09-02T09:14:33;101306.97;;;20.32;49.93
14612;BME280;7392;52.078;11.650;2022-09-02T09:17:08;101311.84;;;20.48;49.04
14612;BME280;7392;52.078;11.650;2022-09-02T09:19:45;101306.91;;;20.61;47.29
14612;BME280;7392;52.078;11.650;2022-09-02T09:22:18;101303.09;;;20.68;47.17
14612;BME280;7392;52.078;11.650;2022-09-02T09:24:47;101298.97;;;20.83;47.36
14612;BME280;7392;52.078;11.650;2022-09-02T09:27:18;101304.50;;;21.03;47.64
14612;BME280;7392;52.078;11.650;2022-09-02T09:29:47;101284.09;;;21.20;46.62
14612;BME280;7392;52.078;11.650;2022-09-02T09:32:21;101293.53;;;21.32;45.62
14612;BME280;7392;52.078;11.650;2022-09-02T09:34:57;101285.94;;;21.41;44.71
14612;BME280;7392;52.078;11.650;2022-09-02T09:37:30;101287.38;;;21.52;43.86
14612;BME280;7392;52.078;11.650;2022-09-02T09:40:21;101277.78;;;21.66;43.62
14612;BME280;7392;52.078;11.650;2022-09-02T09:42:53;101276.44;;;21.78;43.34
14612;BME280;7392;52.078;11.650;2022-09-02T09:45:27;101275.91;;;21.91;42.09
14612;BME280;7392;52.078;11.650;2022-09-02T09:48:13;101280.81;;;22.03;41.65
14612;BME280;7392;52.078;11.650;2022-09-02T09:50:41;101271.56;;;22.09;41.65
14612;BME280;7392;52.078;11.650;2022-09-02T09:53:16;101275.03;;;22.12;41.61
14612;BME280;7392;52.078;11.650;2022-09-02T09:55:51;101269.09;;;22.25;41.53
14612;BME280;7392;52.078;11.650;2022-09-02T09:58:20;101266.63;;;22.40;40.81
14612;BME280;7392;52.078;11.650;2022-09-02T10:00:50;101273.41;;;22.51;40.94
14612;BME280;7392;52.078;11.650;2022-09-02T10:03:24;101269.47;;;22.58;40.76
14612;BME280;7392;52.078;11.650;2022-09-02T10:06:16;101260.84;;;22.50;40.13
14612;BME280;7392;52.078;11.650;2022-09-02T10:08:52;101255.53;;;22.47;40.18
14612;BME280;7392;52.078;11.650;2022-09-02T10:11:22;101251.06;;;22.66;40.29
14612;BME280;7392;52.078;11.650;2022-09-02T10:13:55;101251.59;;;22.74;39.91
14612;BME280;7392;52.078;11.650;2022-09-02T10:16:38;101258.78;;;22.75;38.44
14612;BME280;7392;52.078;11.650;2022-09-02T10:19:17;101248.31;;;22.87;38.80
14612;BME280;7392;52.078;11.650;2022-09-02T10:22:04;101258.31;;;23.05;37.89
14612;BME280;7392;52.078;11.650;2022-09-02T10:24:51;101259.53;;;23.19;37.50
14612;BME280;7392;52.078;11.650;2022-09-02T10:27:28;101261.38;;;23.18;36.32
14612;BME280;7392;52.078;11.650;2022-09-02T10:30:03;101250.47;;;22.99;37.04
14612;BME280;7392;52.078;11.650;2022-09-02T10:32:52;101242.50;;;22.96;37.23
14612;BME280;7392;52.078;11.650;2022-09-02T10:35:32;101253.41;;;23.15;37.15
14612;BME280;7392;52.078;11.650;2022-09-02T10:38:13;101249.75;;;23.35;36.69
14612;BME280;7392;52.078;11.650;2022-09-02T10:40:47;101243.56;;;23.31;35.95
14612;BME280;7392;52.078;11.650;2022-09-02T10:43:25;101235.09;;;23.20;36.68
14612;BME280;7392;52.078;11.650;2022-09-02T10:45:57;101241.44;;;23.38;36.16
14612;BME280;7392;52.078;11.650;2022-09-02T10:48:33;101240.19;;;23.64;36.28
14612;BME280;7392;52.078;11.650;2022-09-02T10:51:10;101237.09;;;23.72;35.57
14612;BME280;7392;52.078;11.650;2022-09-02T10:53:50;101230.59;;;23.57;35.44
14612;BME280;7392;52.078;11.650;2022-09-02T10:56:24;101235.44;;;23.69;35.36
14612;BME280;7392;52.078;11.650;2022-09-02T10:58:56;101237.00;;;23.93;35.68
14612;BME280;7392;52.078;11.650;2022-09-02T11:01:28;101232.22;;;24.15;35.16
14612;BME280;7392;52.078;11.650;2022-09-02T11:04:04;101229.84;;;24.26;34.95
14612;BME280;7392;52.078;11.650;2022-09-02T11:06:38;101238.88;;;24.09;34.78
14612;BME280;7392;52.078;11.650;2022-09-02T11:09:31;101231.38;;;24.15;34.81
14612;BME280;7392;52.078;11.650;2022-09-02T11:12:06;101235.28;;;24.26;35.01
14612;BME280;7392;52.078;11.650;2022-09-02T11:14:57;101235.59;;;24.38;34.75
14612;BME280;7392;52.078;11.650;2022-09-02T11:17:34;101231.28;;;24.51;34.58
14612;BME280;7392;52.078;11.650;2022-09-02T11:20:09;101219.75;;;24.81;34.12
14612;BME280;7392;52.078;11.650;2022-09-02T11:22:47;101220.69;;;24.97;34.28
14612;BME280;7392;52.078;11.650;2022-09-02T11:25:23;101222.56;;;25.13;33.73
14612;BME280;7392;52.078;11.650;2022-09-02T11:27:58;101209.53;;;25.35;33.87
14612;BME280;7392;52.078;11.650;2022-09-02T11:30:37;101210.56;;;25.65;33.20
14612;BME280;7392;52.078;11.650;2022-09-02T11:33:12;101199.31;;;25.87;32.43
14612;BME280;7392;52.078;11.650;2022-09-02T11:35:43;101206.66;;;26.01;31.60
14612;BME280;7392;52.078;11.650;2022-09-02T11:38:23;101207.41;;;26.19;31.49
14612;BME280;7392;52.078;11.650;2022-09-02T11:41:27;101196.56;;;26.47;30.93
14612;BME280;7392;52.078;11.650;2022-09-02T11:44:17;101201.72;;;26.38;30.54
14612;BME280;7392;52.078;11.650;2022-09-02T11:47:04;101197.66;;;26.45;30.93
14612;BME280;7392;52.078;11.650;2022-09-02T11:49:48;101193.19;;;26.58;31.58
14612;BME280;7392;52.078;11.650;2022-09-02T11:52:28;101182.13;;;26.90;31.61
14612;BME280;7392;52.078;11.650;2022-09-02T11:55:07;101187.97;;;26.84;30.28
14612;BME280;7392;52.078;11.650;2022-09-02T11:57:37;101193.53;;;26.82;29.80
14612;BME280;7392;52.078;11.650;2022-09-02T12:00:12;101192.09;;;26.61;29.57
14612;BME280;7392;52.078;11.650;2022-09-02T12:02:42;101184.28;;;26.26;29.73
14612;BME280;7392;52.078;11.650;2022-09-02T12:11:50;101176.44;;;25.75;30.84
14612;BME280;7392;52.078;11.650;2022-09-02T12:17:39;101171.66;;;25.32;31.60
14612;BME280;7392;52.078;11.650;2022-09-02T12:20:09;101168.03;;;25.48;31.67
14612;BME280;7392;52.078;11.650;2022-09-02T12:22:38;101162.56;;;25.64;31.62
14612;BME280;7392;52.078;11.650;2022-09-02T12:25:33;101162.78;;;25.91;31.42
14612;BME280;7392;52.078;11.650;2022-09-02T12:28:15;101170.19;;;26.19;30.20
14612;BME280;7392;52.078;11.650;2022-09-02T12:31:13;101160.88;;;26.52;30.77
14612;BME280;7392;52.078;11.650;2022-09-02T12:33:49;101156.75;;;26.75;30.52
14612;BME280;7392;52.078;11.650;2022-09-02T12:36:45;101164.63;;;26.94;29.91
14612;BME280;7392;52.078;11.650;2022-09-02T12:39:44;101146.97;;;27.14;30.15
14612;BME280;7392;52.078;11.650;2022-09-02T12:42:21;101149.16;;;27.36;29.13
14612;BME280;7392;52.078;11.650;2022-09-02T12:45:02;101148.66;;;27.44;28.96
14612;BME280;7392;52.078;11.650;2022-09-02T12:47:39;101152.31;;;27.57;28.87
14612;BME280;7392;52.078;11.650;2022-09-02T12:50:21;101142.94;;;27.34;28.18
14612;BME280;7392;52.078;11.650;2022-09-02T12:53:07;101148.13;;;27.10;28.45
14612;BME280;7392;52.078;11.650;2022-09-02T12:55:37;101135.03;;;26.88;28.12
14612;BME280;7392;52.078;11.650;2022-09-02T12:58:08;101134.22;;;27.00;28.81
14612;BME280;7392;52.078;11.650;2022-09-02T13:00:53;101131.75;;;27.39;29.00
14612;BME280;7392;52.078;11.650;2022-09-02T13:03:34;101122.34;;;27.70;28.40
14612;BME280;7392;52.078;11.650;2022-09-02T13:06:11;101132.91;;;28.02;28.14
14612;BME280;7392;52.078;11.650;2022-09-02T13:09:14;101120.69;;;28.08;27.24
14612;BME280;7392;52.078;11.650;2022-09-02T13:14:53;101127.63;;;27.86;26.88
14612;BME280;7392;52.078;11.650;2022-09-02T13:17:30;101126.25;;;27.93;27.18
14612;BME280;7392;52.078;11.650;2022-09-02T13:20:40;101127.06;;;28.08;27.35
14612;BME280;7392;52.078;11.650;2022-09-02T13:23:44;101105.97;;;28.36;27.02
14612;BME280;7392;52.078;11.650;2022-09-02T13:26:43;101108.69;;;28.49;26.25
14612;BME280;7392;52.078;11.650;2022-09-02T13:29:44;101112.31;;;28.62;26.22
14612;BME280;7392;52.078;11.650;2022-09-02T13:32:22;101116.88;;;28.75;26.75
14612;BME280;7392;52.078;11.650;2022-09-02T13:34:51;101106.78;;;29.01;27.14